sensor_id;sensor_type;location;lat;lon;timestamp;pressure;altitude;pressure_sealevel;temperature;humidity
49915;BME280;35806;47.958;13.158;2023-10-19T00:02:07;93335.34;;;9.84;53.95
49915;BME280;35806;47.958;13.158;2023-10-19T00:04:35;93324.05;;;9.99;53.90
49915;BME280;35806;47.958;13.158;2023-10-19T00:07:02;93317.22;;;9.61;54.20
49915;BME280;35806;47.958;13.158;2023-10-19T00:09:30;93309.36;;;9.98;54.20
49915;BME280;35806;47.958;13.158;2023-10-19T00:11:58;93308.98;;;10.02;54.55
49915;BME280;35806;47.958;13.158;2023-10-19T00:14:25;93307.45;;;9.84;54.28
49915;BME280;35806;47.958;13.158;2023-10-19T00:16:52;93306.46;;;9.78;54.08
49915;BME280;35806;47.958;13.158;2023-10-19T00:19:19;93299.31;;;9.61;54.09
49915;BME280;35806;47.958;13.158;2023-10-19T00:21:47;93297.79;;;9.07;54.47
49915;BME280;35806;47.958;13.158;2023-10-19T00:24:14;93295.30;;;9.30;54.41
49915;BME280;35806;47.958;13.158;2023-10-19T00:26:41;93290.23;;;9.46;54.03
49915;BME280;35806;47.958;13.158;2023-10-19T00:29:08;93287.67;;;9.60;53.82
49915;BME280;35806;47.958;13.158;2023-10-19T00:31:36;93285.74;;;9.43;53.95
49915;BME280;35806;47.958;13.158;2023-10-19T00:34:03;93287.24;;;9.26;54.36
49915;BME280;35806;47.958;13.158;2023-10-19T00:36:30;93283.78;;;9.32;54.29
49915;BME280;35806;47.958;13.158;2023-10-19T00:38:58;93276.26;;;8.99;54.10
49915;BME280;35806;47.958;13.158;2023-10-19T00:41:26;93273.00;;;9.10;53.86
49915;BME280;35806;47.958;13.158;2023-10-19T00:43:53;93271.58;;;8.76;54.20
49915;BME280;35806;47.958;13.158;2023-10-19T00:46:20;93266.97;;;8.60;54.31
49915;BME280;35806;47.958;13.158;2023-10-19T00:48:49;93262.25;;;8.68;54.60
49915;BME280;35806;47.958;13.158;2023-10-19T00:51:19;93258.20;;;7.74;55.06
49915;BME280;35806;47.958;13.158;2023-10-19T00:53:48;93257.53;;;8.36;54.75
49915;BME280;35806;47.958;13.158;2023-10-19T00:56:16;93256.67;;;8.85;54.54
49915;BME280;35806;47.958;13.158;2023-10-19T00:58:43;93254.81;;;8.60;54.70
49915;BME280;35806;47.958;13.158;2023-10-19T01:15:25;93241.53;;;8.73;55.54
49915;BME280;35806;47.958;13.158;2023-10-19T01:17:53;93242.37;;;8.82;54.90
49915;BME280;35806;47.958;13.158;2023-10-19T01:20:22;93239.61;;;8.61;55.09
49915;BME280;35806;47.958;13.158;2023-10-19T01:22:51;93237.02;;;8.55;54.38
49915;BME280;35806;47.958;13.158;2023-10-19T01:25:18;93236.89;;;7.75;54.55
49915;BME280;35806;47.958;13.158;2023-10-19T01:27:45;93235.37;;;8.24;54.53
49915;BME280;35806;47.958;13.158;2023-10-19T01:30:13;93230.96;;;8.48;54.29
49915;BME280;35806;47.958;13.158;2023-10-19T01:32:40;93227.60;;;8.41;55.12
49915;BME280;35806;47.958;13.158;2023-10-19T01:35:08;93224.99;;;8.72;55.12
49915;BME280;35806;47.958;13.158;2023-10-19T01:37:35;93222.25;;;8.79;55.16
49915;BME280;35806;47.958;13.158;2023-10-19T01:40:03;93219.21;;;9.08;54.83
49915;BME280;35806;47.958;13.158;2023-10-19T01:42:30;93216.10;;;8.59;54.22
49915;BME280;35806;47.958;13.158;2023-10-19T01:44:58;93211.94;;;8.48;54.33
49915;BME280;35806;47.958;13.158;2023-10-19T01:47:24;93208.77;;;8.85;53.90
49915;BME280;35806;47.958;13.158;2023-10-19T01:49:51;93206.85;;;8.45;53.96
49915;BME280;35806;47.958;13.158;2023-10-19T01:52:19;93204.90;;;8.66;54.41
49915;BME280;35806;47.958;13.158;2023-10-19T01:54:46;93206.77;;;8.78;55.03
49915;BME280;35806;47.958;13.158;2023-10-19T01:57:13;93203.92;;;8.83;55.40
49915;BME280;35806;47.958;13.158;2023-10-19T01:59:40;93202.70;;;9.03;55.04
49915;BME280;35806;47.958;13.158;2023-10-19T02:02:07;93206.38;;;9.06;54.73
49915;BME280;35806;47.958;13.158;2023-10-19T02:04:35;93204.75;;;9.17;54.46
49915;BME280;35806;47.958;13.158;2023-10-19T02:07:02;93203.14;;;9.18;54.43
49915;BME280;35806;47.958;13.158;2023-10-19T02:09:30;93202.76;;;9.07;55.00
49915;BME280;35806;47.958;13.158;2023-10-19T02:11:57;93202.56;;;9.15;55.20
49915;BME280;35806;47.958;13.158;2023-10-19T02:14:26;93199.37;;;9.14;54.76
49915;BME280;35806;47.958;13.158;2023-10-19T02:16:54;93197.84;;;9.27;54.43
49915;BME280;35806;47.958;13.158;2023-10-19T02:19:23;93192.78;;;9.45;53.89
49915;BME280;35806;47.958;13.158;2023-10-19T02:22:06;93189.21;;;9.13;53.91
49915;BME280;35806;47.958;13.158;2023-10-19T02:24:54;93193.44;;;9.43;54.06
49915;BME280;35806;47.958;13.158;2023-10-19T02:27:21;93190.41;;;9.05;53.73
49915;BME280;35806;47.958;13.158;2023-10-19T02:29:48;93187.16;;;8.81;53.44
49915;BME280;35806;47.958;13.158;2023-10-19T02:32:15;93187.73;;;8.73;52.61
49915;BME280;35806;47.958;13.158;2023-10-19T02:34:43;93187.59;;;9.54;51.79
49915;BME280;35806;47.958;13.158;2023-10-19T02:37:10;93187.19;;;8.95;53.54
49915;BME280;35806;47.958;13.158;2023-10-19T02:39:37;93183.49;;;8.73;53.59
49915;BME280;35806;47.958;13.158;2023-10-19T02:42:04;93182.92;;;8.95;53.76
49915;BME280;35806;47.958;13.158;2023-10-19T02:44:32;93184.40;;;8.76;54.09
49915;BME280;35806;47.958;13.158;2023-10-19T02:46:59;93180.37;;;8.84;53.89
49915;BME280;35806;47.958;13.158;2023-10-19T02:49:27;93177.28;;;8.75;53.64
49915;BME280;35806;47.958;13.158;2023-10-19T02:51:55;93179.53;;;8.98;53.93
49915;BME280;35806;47.958;13.158;2023-10-19T02:54:23;93173.34;;;8.62;53.69
49915;BME280;35806;47.958;13.158;2023-10-19T02:56:52;93166.59;;;8.19;53.61
49915;BME280;35806;47.958;13.158;2023-10-19T02:59:21;93161.18;;;8.57;53.14
49915;BME280;35806;47.958;13.158;2023-10-19T03:01:49;93161.40;;;8.61;53.91
49915;BME280;35806;47.958;13.158;2023-10-19T03:04:16;93162.10;;;8.53;53.85
49915;BME280;35806;47.958;13.158;2023-10-19T03:06:43;93160.74;;;8.51;54.24
49915;BME280;35806;47.958;13.158;2023-10-19T03:09:10;93160.41;;;8.58;54.08
49915;BME280;35806;47.958;13.158;2023-10-19T03:11:38;93153.54;;;8.47;54.58
49915;BME280;35806;47.958;13.158;2023-10-19T03:14:05;93151.57;;;8.69;54.12
49915;BME280;35806;47.958;13.158;2023-10-19T03:16:33;93151.00;;;8.33;54.41
49915;BME280;35806;47.958;13.158;2023-10-19T03:19:00;93152.43;;;8.42;53.81
49915;BME280;35806;47.958;13.158;2023-10-19T03:21:27;93150.82;;;8.27;54.58
49915;BME280;35806;47.958;13.158;2023-10-19T03:23:54;93153.56;;;8.33;53.65
49915;BME280;35806;47.958;13.158;2023-10-19T03:26:22;93149.49;;;8.05;54.72
49915;BME280;35806;47.958;13.158;2023-10-19T03:28:54;93151.82;;;8.21;54.21
49915;BME280;35806;47.958;13.158;2023-10-19T03:31:22;93148.16;;;7.96;54.94
49915;BME280;35806;47.958;13.158;2023-10-19T03:33:50;93142.59;;;8.39;54.18
49915;BME280;35806;47.958;13.158;2023-10-19T03:36:18;93143.88;;;8.15;54.90
49915;BME280;35806;47.958;13.158;2023-10-19T03:38:45;93140.19;;;8.23;54.67
49915;BME280;35806;47.958;13.158;2023-10-19T03:41:13;93138.68;;;7.76;54.34
49915;BME280;35806;47.958;13.158;2023-10-19T03:43:40;93142.55;;;7.53;53.96
49915;BME280;35806;47.958;13.158;2023-10-19T03:46:08;93143.55;;;7.75;54.51
49915;BME280;35806;47.958;13.158;2023-10-19T03:48:35;93144.34;;;8.12;54.09
49915;BME280;35806;47.958;13.158;2023-10-19T03:51:03;93141.86;;;8.23;54.07
49915;BME280;35806;47.958;13.158;2023-10-19T03:53:30;93137.25;;;8.07;54.45
49915;BME280;35806;47.958;13.158;2023-10-19T03:55:57;93133.63;;;8.29;54.05
49915;BME280;35806;47.958;13.158;2023-10-19T03:58:24;93133.49;;;7.66;54.59
49915;BME280;35806;47.958;13.158;2023-10-19T04:00:51;93134.15;;;7.85;54.79
49915;BME280;35806;47.958;13.158;2023-10-19T04:03:18;93132.34;;;8.22;54.15
49915;BME280;35806;47.958;13.158;2023-10-19T04:05:45;93129.02;;;7.45;54.47
49915;BME280;35806;47.958;13.158;2023-10-19T04:08:17;93132.30;;;7.85;54.18
49915;BME280;35806;47.958;13.158;2023-10-19T04:10:45;93130.67;;;7.89;54.25
49915;BME280;35806;47.958;13.158;2023-10-19T04:13:12;93130.03;;;8.30;54.28
49915;BME280;35806;47.958;13.158;2023-10-19T04:15:40;93127.10;;;8.32;54.44
49915;BME280;35806;47.958;13.158;2023-10-19T04:18:07;93131.38;;;7.75;54.74
49915;BME280;35806;47.958;13.158;2023-10-19T04:20:35;93132.81;;;7.96;54.59
49915;BME280;35806;47.958;13.158;2023-10-19T04:23:08;93135.49;;;8.42;54.39
49915;BME280;35806;47.958;13.158;2023-10-19T04:25:36;93137.05;;;8.59;54.33
49915;BME280;35806;47.958;13.158;2023-10-19T04:28:03;93139.44;;;9.06;52.77
49915;BME280;35806;47.958;13.158;2023-10-19T04:30:31;93134.90;;;8.98;53.25
49915;BME280;35806;47.958;13.158;2023-10-19T04:33:04;93136.60;;;8.83;53.46
49915;BME280;35806;47.958;13.158;2023-10-19T04:35:32;93131.66;;;7.96;54.63
49915;BME280;35806;47.958;13.158;2023-10-19T04:37:59;93134.51;;;8.86;53.93
49915;BME280;35806;47.958;13.158;2023-10-19T04:40:27;93129.19;;;9.29;53.45
49915;BME280;35806;47.958;13.158;2023-10-19T04:42:54;93128.64;;;9.14;53.35
49915;BME280;35806;47.958;13.158;2023-10-19T04:45:22;93124.80;;;9.01;52.70
49915;BME280;35806;47.958;13.158;2023-10-19T04:47:51;93125.03;;;9.85;52.26
49915;BME280;35806;47.958;13.158;2023-10-19T04:50:18;93125.92;;;9.63;52.51
49915;BME280;35806;47.958;13.158;2023-10-19T04:52:45;93124.95;;;9.84;52.63
49915;BME280;35806;47.958;13.158;2023-10-19T04:55:13;93124.21;;;10.50;52.32
49915;BME280;35806;47.958;13.158;2023-10-19T04:57:40;93116.06;;;10.15;52.62
49915;BME280;35806;47.958;13.158;2023-10-19T05:00:08;93119.22;;;10.55;51.83
49915;BME280;35806;47.958;13.158;2023-10-19T05:02:38;93113.99;;;9.97;51.99
49915;BME280;35806;47.958;13.158;2023-10-19T05:05:06;93113.59;;;9.83;51.49
49915;BME280;35806;47.958;13.158;2023-10-19T05:07:33;93115.76;;;10.43;51.40
49915;BME280;35806;47.958;13.158;2023-10-19T05:10:00;93119.72;;;9.70;51.16
49915;BME280;35806;47.958;13.158;2023-10-19T05:12:47;93115.23;;;10.27;51.81
49915;BME280;35806;47.958;13.158;2023-10-19T05:15:15;93117.55;;;9.77;52.14
49915;BME280;35806;47.958;13.158;2023-10-19T05:17:42;93118.22;;;9.96;52.39
49915;BME280;35806;47.958;13.158;2023-10-19T05:20:10;93121.87;;;9.85;52.51
49915;BME280;35806;47.958;13.158;2023-10-19T05:22:38;93117.71;;;9.48;52.72
49915;BME280;35806;47.958;13.158;2023-10-19T05:25:06;93111.49;;;9.70;53.12
49915;BME280;35806;47.958;13.158;2023-10-19T05:27:33;93108.40;;;9.82;52.79
49915;BME280;35806;47.958;13.158;2023-10-19T05:30:00;93103.54;;;9.50;53.09
49915;BME280;35806;47.958;13.158;2023-10-19T05:32:28;93104.64;;;9.40;53.39
49915;BME280;35806;47.958;13.158;2023-10-19T05:34:55;93110.89;;;9.82;53.18
49915;BME280;35806;47.958;13.158;2023-10-19T05:37:22;93117.81;;;9.58;52.81
49915;BME280;35806;47.958;13.158;2023-10-19T05:39:50;93115.41;;;9.75;53.34
49915;BME280;35806;47.958;13.158;2023-10-19T05:42:17;93115.89;;;9.79;53.11
49915;BME280;35806;47.958;13.158;2023-10-19T05:44:44;93115.57;;;9.73;52.75
49915;BME280;35806;47.958;13.158;2023-10-19T05:47:12;93112.89;;;9.39;52.50
49915;BME280;35806;47.958;13.158;2023-10-19T05:49:39;93108.98;;;9.85;52.69
49915;BME280;35806;47.958;13.158;2023-10-19T05:52:06;93108.10;;;9.61;52.42
49915;BME280;35806;47.958;13.158;2023-10-19T05:54:33;93108.30;;;9.63;52.39
49915;BME280;35806;47.958;13.158;2023-10-19T05:57:00;93108.25;;;9.65;52.45
49915;BME280;35806;47.958;13.158;2023-10-19T05:59:27;93111.19;;;9.51;52.56
49915;BME280;35806;47.958;13.158;2023-10-19T06:01:54;93111.26;;;9.88;52.53
49915;BME280;35806;47.958;13.158;2023-10-19T06:04:22;93111.51;;;8.92;53.62
49915;BME280;35806;47.958;13.158;2023-10-19T06:06:49;93110.45;;;9.01;53.18
49915;BME280;35806;47.958;13.158;2023-10-19T06:09:17;93105.05;;;9.46;53.03
49915;BME280;35806;47.958;13.158;2023-10-19T06:11:44;93104.06;;;9.81;53.41
49915;BME280;35806;47.958;13.158;2023-10-19T06:14:16;93101.05;;;9.48;53.50
49915;BME280;35806;47.958;13.158;2023-10-19T06:16:44;93100.49;;;9.87;53.12
49915;BME280;35806;47.958;13.158;2023-10-19T06:19:16;93100.19;;;9.48;53.38
49915;BME280;35806;47.958;13.158;2023-10-19T06:21:44;93107.37;;;9.60;53.26
49915;BME280;35806;47.958;13.158;2023-10-19T06:24:14;93102.01;;;10.07;53.66
49915;BME280;35806;47.958;13.158;2023-10-19T06:26:42;93101.60;;;10.12;53.54
49915;BME280;35806;47.958;13.158;2023-10-19T06:29:09;93099.00;;;10.05;53.75
49915;BME280;35806;47.958;13.158;2023-10-19T06:31:36;93100.10;;;10.11;53.80
49915;BME280;35806;47.958;13.158;2023-10-19T06:34:04;93099.22;;;10.35;53.55
49915;BME280;35806;47.958;13.158;2023-10-19T06:36:31;93105.20;;;10.58;53.42
49915;BME280;35806;47.958;13.158;2023-10-19T06:38:59;93104.57;;;10.56;53.66
49915;BME280;35806;47.958;13.158;2023-10-19T06:41:26;93107.42;;;10.69;53.66
49915;BME280;35806;47.958;13.158;2023-10-19T06:43:54;93106.51;;;10.80;53.63
49915;BME280;35806;47.958;13.158;2023-10-19T06:46:21;93104.33;;;10.91;53.15
49915;BME280;35806;47.958;13.158;2023-10-19T06:48:48;93108.62;;;10.76;53.03
49915;BME280;35806;47.958;13.158;2023-10-19T06:51:15;93106.87;;;10.95;52.90
49915;BME280;35806;47.958;13.158;2023-10-19T06:53:42;93105.34;;;11.08;52.73
49915;BME280;35806;47.958;13.158;2023-10-19T06:56:10;93108.02;;;11.03;52.66
49915;BME280;35806;47.958;13.158;2023-10-19T06:58:37;93108.94;;;11.15;52.90
49915;BME280;35806;47.958;13.158;2023-10-19T07:01:08;93108.50;;;11.15;53.08
49915;BME280;35806;47.958;13.158;2023-10-19T07:03:35;93107.03;;;11.44;53.22
49915;BME280;35806;47.958;13.158;2023-10-19T07:06:08;93104.54;;;11.60;53.27
49915;BME280;35806;47.958;13.158;2023-10-19T07:08:35;93099.79;;;11.65;53.01
49915;BME280;35806;47.958;13.158;2023-10-19T07:11:18;93098.48;;;11.72;52.20
49915;BME280;35806;47.958;13.158;2023-10-19T07:13:45;93097.08;;;11.83;52.22
49915;BME280;35806;47.958;13.158;2023-10-19T07:16:13;93098.54;;;11.91;52.19
49915;BME280;35806;47.958;13.158;2023-10-19T07:18:40;93099.70;;;11.82;51.51
49915;BME280;35806;47.958;13.158;2023-10-19T07:21:08;93099.25;;;12.15;51.18
49915;BME280;35806;47.958;13.158;2023-10-19T07:23:36;93098.06;;;12.00;51.39
49915;BME280;35806;47.958;13.158;2023-10-19T07:26:03;93100.03;;;12.24;50.79
49915;BME280;35806;47.958;13.158;2023-10-19T07:28:31;93103.64;;;12.10;50.95
49915;BME280;35806;47.958;13.158;2023-10-19T07:30:59;93105.46;;;12.56;51.15
49915;BME280;35806;47.958;13.158;2023-10-19T07:33:26;93101.85;;;11.85;52.21
49915;BME280;35806;47.958;13.158;2023-10-19T07:36:13;93103.48;;;12.93;52.09
49915;BME280;35806;47.958;13.158;2023-10-19T07:38:40;93104.48;;;12.17;48.28
49915;BME280;35806;47.958;13.158;2023-10-19T07:41:08;93107.21;;;13.11;48.86
49915;BME280;35806;47.958;13.158;2023-10-19T07:43:36;93103.84;;;13.16;48.75
49915;BME280;35806;47.958;13.158;2023-10-19T07:46:13;93101.82;;;13.08;49.26
49915;BME280;35806;47.958;13.158;2023-10-19T07:48:40;93102.93;;;13.72;49.47
49915;BME280;35806;47.958;13.158;2023-10-19T07:51:08;93102.95;;;13.84;49.45
49915;BME280;35806;47.958;13.158;2023-10-19T07:53:36;93099.59;;;14.02;49.55
49915;BME280;35806;47.958;13.158;2023-10-19T07:56:08;93101.69;;;13.55;50.17
49915;BME280;35806;47.958;13.158;2023-10-19T07:58:35;93109.80;;;13.61;49.48
49915;BME280;35806;47.958;13.158;2023-10-19T08:01:02;93113.01;;;13.38;49.61
49915;BME280;35806;47.958;13.158;2023-10-19T08:03:30;93113.16;;;13.35;49.62
49915;BME280;35806;47.958;13.158;2023-10-19T08:05:57;93114.48;;;13.14;49.78
49915;BME280;35806;47.958;13.158;2023-10-19T08:08:24;93113.02;;;13.24;49.49
49915;BME280;35806;47.958;13.158;2023-10-19T08:10:55;93112.46;;;13.19;49.69
49915;BME280;35806;47.958;13.158;2023-10-19T08:13:22;93109.65;;;13.08;50.12
49915;BME280;35806;47.958;13.158;2023-10-19T08:15:49;93103.62;;;13.21;50.63
49915;BME280;35806;47.958;13.158;2023-10-19T08:18:16;93101.00;;;13.03;50.48
49915;BME280;35806;47.958;13.158;2023-10-19T08:20:44;93102.15;;;12.99;51.42
49915;BME280;35806;47.958;13.158;2023-10-19T08:23:12;93099.34;;;13.44;51.30
49915;BME280;35806;47.958;13.158;2023-10-19T08:25:39;93089.57;;;13.69;51.46
49915;BME280;35806;47.958;13.158;2023-10-19T08:28:06;93087.79;;;13.64;51.25
49915;BME280;35806;47.958;13.158;2023-10-19T08:30:33;93085.05;;;13.86;49.48
49915;BME280;35806;47.958;13.158;2023-10-19T08:33:01;93094.33;;;14.32;50.29
49915;BME280;35806;47.958;13.158;2023-10-19T08:35:28;93097.70;;;14.47;50.41
49915;BME280;35806;47.958;13.158;2023-10-19T08:37:56;93094.75;;;14.63;51.94
49915;BME280;35806;47.958;13.158;2023-10-19T08:40:25;93096.12;;;14.62;49.38
49915;BME280;35806;47.958;13.158;2023-10-19T08:42:59;93099.79;;;15.14;48.74
49915;BME280;35806;47.958;13.158;2023-10-19T08:45:26;93096.97;;;15.65;48.02
49915;BME280;35806;47.958;13.158;2023-10-19T08:47:56;93098.12;;;15.48;45.08
49915;BME280;35806;47.958;13.158;2023-10-19T08:50:23;93094.58;;;15.76;45.55
49915;BME280;35806;47.958;13.158;2023-10-19T08:52:53;93090.85;;;16.16;45.38
49915;BME280;35806;47.958;13.158;2023-10-19T08:55:20;93086.42;;;15.43;42.37
49915;BME280;35806;47.958;13.158;2023-10-19T08:57:49;93087.59;;;15.71;41.91
49915;BME280;35806;47.958;13.158;2023-10-19T09:00:18;93088.70;;;15.65;44.24
49915;BME280;35806;47.958;13.158;2023-10-19T09:02:45;93087.09;;;15.70;44.59
49915;BME280;35806;47.958;13.158;2023-10-19T09:05:13;93088.18;;;15.98;43.20
49915;BME280;35806;47.958;13.158;2023-10-19T09:07:41;93089.20;;;16.38;43.00
49915;BME280;35806;47.958;13.158;2023-10-19T09:10:09;93096.59;;;16.14;44.64
49915;BME280;35806;47.958;13.158;2023-10-19T09:12:41;93093.88;;;15.80;45.46
49915;BME280;35806;47.958;13.158;2023-10-19T09:15:21;93087.79;;;16.14;45.42
49915;BME280;35806;47.958;13.158;2023-10-19T09:18:21;93079.23;;;16.16;45.87
49915;BME280;35806;47.958;13.158;2023-10-19T09:20:59;93074.52;;;15.84;47.14
49915;BME280;35806;47.958;13.158;2023-10-19T09:23:26;93071.42;;;15.71;47.73
49915;BME280;35806;47.958;13.158;2023-10-19T09:25:55;93071.17;;;16.04;47.81
49915;BME280;35806;47.958;13.158;2023-10-19T09:28:23;93071.16;;;16.06;48.12
49915;BME280;35806;47.958;13.158;2023-10-19T09:30:52;93069.32;;;16.31;48.05
49915;BME280;35806;47.958;13.158;2023-10-19T09:33:19;93064.88;;;16.22;48.21
49915;BME280;35806;47.958;13.158;2023-10-19T09:35:49;93062.83;;;16.46;48.23
49915;BME280;35806;47.958;13.158;2023-10-19T09:38:17;93056.85;;;16.41;48.16
49915;BME280;35806;47.958;13.158;2023-10-19T09:40:44;93057.08;;;16.81;47.52
49915;BME280;35806;47.958;13.158;2023-10-19T09:43:16;93057.81;;;16.98;46.39
49915;BME280;35806;47.958;13.158;2023-10-19T09:45:49;93051.99;;;16.87;46.77
49915;BME280;35806;47.958;13.158;2023-10-19T09:48:19;93053.53;;;16.77;46.95
49915;BME280;35806;47.958;13.158;2023-10-19T09:50:53;93054.43;;;16.79;46.64
49915;BME280;35806;47.958;13.158;2023-10-19T09:53:22;93056.62;;;16.82;47.12
49915;BME280;35806;47.958;13.158;2023-10-19T09:55:51;93053.31;;;16.85;46.75
49915;BME280;35806;47.958;13.158;2023-10-19T09:58:27;93050.43;;;16.82;46.51
49915;BME280;35806;47.958;13.158;2023-10-19T10:01:01;93045.70;;;17.34;46.92
49915;BME280;35806;47.958;13.158;2023-10-19T10:03:45;93048.09;;;17.60;45.61
49915;BME280;35806;47.958;13.158;2023-10-19T10:06:15;93051.09;;;17.74;44.62
49915;BME280;35806;47.958;13.158;2023-10-19T10:08:44;93047.17;;;17.66;44.27
49915;BME280;35806;47.958;13.158;2023-10-19T10:11:18;93041.62;;;17.45;43.97
49915;BME280;35806;47.958;13.158;2023-10-19T10:13:46;93039.52;;;17.44;44.26
49915;BME280;35806;47.958;13.158;2023-10-19T10:16:34;93034.13;;;17.92;44.16
49915;BME280;35806;47.958;13.158;2023-10-19T10:19:05;93031.63;;;17.04;44.51
49915;BME280;35806;47.958;13.158;2023-10-19T10:21:33;93029.64;;;17.01;44.73
49915;BME280;35806;47.958;13.158;2023-10-19T10:24:04;93023.55;;;16.90;44.31
49915;BME280;35806;47.958;13.158;2023-10-19T10:26:57;93021.65;;;16.86;44.65
49915;BME280;35806;47.958;13.158;2023-10-19T10:29:25;93015.29;;;16.57;44.78
49915;BME280;35806;47.958;13.158;2023-10-19T10:31:57;93009.77;;;16.47;44.76
49915;BME280;35806;47.958;13.158;2023-10-19T10:34:44;93006.26;;;16.58;44.68
49915;BME280;35806;47.958;13.158;2023-10-19T10:37:21;93004.77;;;16.57;44.80
49915;BME280;35806;47.958;13.158;2023-10-19T10:39:48;92999.59;;;16.71;44.39
49915;BME280;35806;47.958;13.158;2023-10-19T10:42:16;92992.15;;;16.70;43.83
49915;BME280;35806;47.958;13.158;2023-10-19T10:44:45;92989.85;;;16.95;43.65
49915;BME280;35806;47.958;13.158;2023-10-19T10:47:17;92986.79;;;17.10;43.44
49915;BME280;35806;47.958;13.158;2023-10-19T10:49:49;92982.01;;;17.27;43.73
49915;BME280;35806;47.958;13.158;2023-10-19T10:52:24;92978.07;;;17.17;44.02
49915;BME280;35806;47.958;13.158;2023-10-19T10:54:51;92979.99;;;17.40;44.34
49915;BME280;35806;47.958;13.158;2023-10-19T10:57:19;92979.39;;;17.46;43.76
49915;BME280;35806;47.958;13.158;2023-10-19T10:59:46;92976.19;;;17.39;43.76
49915;BME280;35806;47.958;13.158;2023-10-19T11:02:17;92974.32;;;17.17;44.24
49915;BME280;35806;47.958;13.158;2023-10-19T11:05:00;92970.46;;;17.42;44.67
49915;BME280;35806;47.958;13.158;2023-10-19T11:07:28;92968.57;;;17.78;44.83
49915;BME280;35806;47.958;13.158;2023-10-19T11:09:55;92964.33;;;18.28;45.34
49915;BME280;35806;47.958;13.158;2023-10-19T11:12:23;92965.02;;;18.30;43.91
49915;BME280;35806;47.958;13.158;2023-10-19T11:14:52;92962.53;;;18.76;43.16
49915;BME280;35806;47.958;13.158;2023-10-19T11:17:20;92961.05;;;18.37;43.11
49915;BME280;35806;47.958;13.158;2023-10-19T11:19:47;92956.23;;;18.61;43.49
49915;BME280;35806;47.958;13.158;2023-10-19T11:22:20;92944.66;;;18.96;43.88
49915;BME280;35806;47.958;13.158;2023-10-19T11:24:46;92940.39;;;19.40;42.91
49915;BME280;35806;47.958;13.158;2023-10-19T11:27:27;92938.02;;;19.89;41.30
49915;BME280;35806;47.958;13.158;2023-10-19T11:29:55;92944.24;;;20.15;39.17
49915;BME280;35806;47.958;13.158;2023-10-19T11:32:23;92941.48;;;19.99;37.50
49915;BME280;35806;47.958;13.158;2023-10-19T11:34:55;92933.70;;;19.70;36.86
49915;BME280;35806;47.958;13.158;2023-10-19T11:37:23;92923.53;;;20.18;37.64
49915;BME280;35806;47.958;13.158;2023-10-19T11:39:50;92919.90;;;20.71;35.66
49915;BME280;35806;47.958;13.158;2023-10-19T11:42:18;92921.44;;;21.32;36.33
49915;BME280;35806;47.958;13.158;2023-10-19T11:44:46;92924.80;;;22.05;36.38
49915;BME280;35806;47.958;13.158;2023-10-19T11:47:13;92926.07;;;22.80;34.07
49915;BME280;35806;47.958;13.158;2023-10-19T11:49:40;92925.45;;;23.11;33.05
49915;BME280;35806;47.958;13.158;2023-10-19T11:52:08;92929.62;;;23.58;31.70
49915;BME280;35806;47.958;13.158;2023-10-19T11:54:36;92928.22;;;23.63;32.24
49915;BME280;35806;47.958;13.158;2023-10-19T11:57:08;92917.69;;;23.74;32.71
49915;BME280;35806;47.958;13.158;2023-10-19T11:59:35;92918.90;;;23.86;31.12
49915;BME280;35806;47.958;13.158;2023-10-19T12:02:03;92913.61;;;23.24;32.15
49915;BME280;35806;47.958;13.158;2023-10-19T12:04:30;92908.40;;;23.92;32.25
49915;BME280;35806;47.958;13.158;2023-10-19T12:06:58;92907.52;;;23.91;33.75
49915;BME280;35806;47.958;13.158;2023-10-19T12:09:26;92903.33;;;23.94;33.30
49915;BME280;35806;47.958;13.158;2023-10-19T12:11:58;92897.22;;;24.00;32.15
49915;BME280;35806;47.958;13.158;2023-10-19T12:14:25;92890.10;;;23.63;30.88
49915;BME280;35806;47.958;13.158;2023-10-19T12:16:52;92891.24;;;24.00;30.69
49915;BME280;35806;47.958;13.158;2023-10-19T12:19:50;92886.82;;;24.42;31.88
49915;BME280;35806;47.958;13.158;2023-10-19T12:22:18;92877.50;;;23.94;31.63
49915;BME280;35806;47.958;13.158;2023-10-19T12:24:45;92874.82;;;24.11;31.34
49915;BME280;35806;47.958;13.158;2023-10-19T12:27:13;92874.37;;;23.57;30.79
49915;BME280;35806;47.958;13.158;2023-10-19T12:29:40;92868.93;;;22.98;31.28
49915;BME280;35806;47.958;13.158;2023-10-19T12:32:07;92865.17;;;22.43;33.49
49915;BME280;35806;47.958;13.158;2023-10-19T12:34:34;92862.27;;;22.61;33.37
49915;BME280;35806;47.958;13.158;2023-10-19T12:37:01;92854.56;;;22.93;32.17
49915;BME280;35806;47.958;13.158;2023-10-19T12:39:29;92859.64;;;23.12;30.77
49915;BME280;35806;47.958;13.158;2023-10-19T12:41:56;92861.62;;;22.79;30.29
49915;BME280;35806;47.958;13.158;2023-10-19T12:44:23;92856.05;;;22.70;31.29
49915;BME280;35806;47.958;13.158;2023-10-19T12:47:06;92854.19;;;22.38;32.56
49915;BME280;35806;47.958;13.158;2023-10-19T12:49:34;92854.13;;;22.63;33.14
49915;BME280;35806;47.958;13.158;2023-10-19T12:52:01;92852.99;;;22.54;35.00
49915;BME280;35806;47.958;13.158;2023-10-19T12:54:29;92848.24;;;22.74;33.46
49915;BME280;35806;47.958;13.158;2023-10-19T12:56:56;92841.25;;;22.12;33.29
49915;BME280;35806;47.958;13.158;2023-10-19T12:59:23;92826.07;;;22.30;35.61
49915;BME280;35806;47.958;13.158;2023-10-19T13:01:50;92821.30;;;22.96;35.91
49915;BME280;35806;47.958;13.158;2023-10-19T13:04:18;92827.12;;;23.04;34.29
49915;BME280;35806;47.958;13.158;2023-10-19T13:06:45;92829.52;;;23.55;33.50
49915;BME280;35806;47.958;13.158;2023-10-19T13:09:17;92824.90;;;23.57;32.25
49915;BME280;35806;47.958;13.158;2023-10-19T13:11:45;92817.58;;;23.27;32.90
49915;BME280;35806;47.958;13.158;2023-10-19T13:14:12;92810.31;;;23.18;34.10
49915;BME280;35806;47.958;13.158;2023-10-19T13:16:40;92806.74;;;23.40;34.03
49915;BME280;35806;47.958;13.158;2023-10-19T13:19:07;92811.25;;;23.00;33.78